Terminal Aerodrome Forecast
Issued by NWS

Home | Current Version | Previous Version | Text Only | Print | Product List | Glossary On
Versions: 1 2 3 4 5 6 7 8 9 10 11 12
000
FTUS45 KFGZ 192339
TAFGCN
TAF
KGCN 192339Z 2000/2024 20017G26KT P6SM SCT120 BKN250
     FM200100 22012KT P6SM SCT070 BKN150
     FM201000 21015G25KT P6SM VCSH BKN025 OVC070
     FM201200 22014KT P6SM SCT020 OVC040
      TEMPO 2012/2015 3SM -SHSN OVC020
     FM201500 22015G25KT P6SM SCT015 OVC030
      TEMPO 2015/2018 1SM -SHSN OVC015
     FM201800 22017G27KT 5SM -SHSN OVC020
      TEMPO 2018/2022 1SM -SHSN BR OVC010=

USA.gov is the U.S. government's official web portal to all federal, state and local government web resources and services.